Mt. Laguna (440) Station Data

Red Flag Warning: No
Fire Weather Zone: 258
SDGE Region: Mountain Empire
Lat/Lon: 32.878/-116.424

Observations

Time Wind Speed/Gust Temp(F) RH Fuel Moist Fuel Temp(F) Dewpt(F) Tmax(F) Tmin(F) Accum Precip 10-min Precip SL Press(mb)
4/26 2:40am 92 1 G 2 54° 30% - - 23° 54.4° 46.5° - - 864.0
4/26 2:30am 97 2 G 2 54° 30% - - 23° 54.2° 46.5° - - 864.0
4/26 2:20am 93 1 G 2 52° 33% - - 23° 53.4° 46.5° - - 865.0
4/26 2:10am 93 1 G 2 49° 39% - - 25° 50.6° 46.5° - - 867.0
4/26 2:00am 91 1 G 1 49° 40% - - 25° 50.6° 46.5° - - 867.0
4/26 1:50am 94 1 G 2 49° 40% - - 26° 50.6° 46.5° - - 867.0
4/26 1:40am 90 0 G 2 49° 40% - - 25° 50.6° 46.5° - - 867.0
4/26 1:30am 93 0 G 1 49° 39% - - 26° 50.6° 46.5° - - 867.0
4/26 1:20am 82 0 G 1 50° 38% - - 25° 50.6° 46.5° - - 866.0
4/26 1:10am 105 0 G 1 50° 38% - - 25° 50.6° 46.5° - - 867.0
4/26 1:00am 100 0 G 1 50° 37% - - 25° 50.6° 46.5° - - 866.0
4/26 12:50am 98 0 G 1 50° 38% - - 26° 50.2° 46.5° - - 867.0
4/26 12:40am 87 0 G 1 50° 40% - - 26° 50° 46.5° - - 867.0
4/26 12:30am 96 0 G 1 49° 41% - - 26° 49.5° 46.5° - - 868.0
4/26 12:20am 97 0 G 1 48° 44% - - 27° 48.5° 46.5° - - 869.0
4/26 12:10am 98 0 G 2 47° 46% - - 27° 47.7° 46.5° - - 869.0
4/26 12:00am 101 0 G 1 46° 48% - - 28° 52.7° 38.9° - - 870.0
4/25 11:50pm 83 0 G 1 46° 48% - - 28° 52.7° 38.9° - - 870.0
4/25 11:40pm 114 0 G 1 46° 49% - - 28° 52.7° 38.9° - - 870.0
4/25 11:30pm 88 1 G 3 45° 51% - - 28° 52.7° 38.9° - - 871.0
4/25 11:20pm 96 1 G 2 45° 51% - - 28° 52.7° 38.9° - - 871.0
4/25 11:10pm 87 1 G 2 45° 51% - - 28° 52.7° 38.9° - - 871.0
4/25 11:00pm 97 1 G 3 45° 53% - - 29° 52.7° 38.9° - - 872.0
4/25 10:50pm 51 1 G 3 45° 54% - - 29° 52.7° 38.9° - - 872.0
4/25 10:40pm 105 1 G 3 45° 54% - - 30° 52.7° 38.9° - - 872.0
4/25 10:30pm 78 1 G 2 46° 53% - - 30° 52.7° 38.9° - - 872.0
4/25 10:20pm 109 1 G 2 46° 52% - - 30° 52.7° 38.9° - - 872.0
4/25 10:10pm 109 1 G 3 46° 52% - - 29° 52.7° 38.9° - - 872.0
4/25 10:00pm 98 1 G 2 45° 56% - - 30° 52.7° 38.9° - - 873.0
4/25 9:50pm 96 1 G 4 43° 61% - - 30° 52.7° 38.9° - - 875.0
4/25 9:40pm 105 1 G 3 42° 64% - - 31° 52.7° 38.9° - - 876.0
4/25 9:30pm 124 0 G 2 42° 64% - - 31° 52.7° 38.9° - - 876.0
4/25 9:20pm 92 0 G 2 43° 62% - - 31° 52.7° 38.9° - - 875.0
4/25 9:10pm 109 1 G 2 43° 64% - - 31° 52.7° 38.9° - - 876.0
4/25 9:00pm 93 0 G 1 43° 65% - - 32° 52.7° 38.9° - - 877.0
4/25 8:50pm 111 0 G 1 43° 68% - - 33° 52.7° 38.9° - - 878.0
4/25 8:40pm 110 1 G 3 43° 71% - - 34° 52.7° 38.9° - - 879.0
4/25 8:30pm 122 0 G 2 42° 75% - - 35° 52.7° 38.9° - - 881.0
4/25 8:20pm 105 1 G 2 42° 79% - - 37° 52.7° 38.9° - - 883.0
4/25 8:10pm 157 1 G 2 42° 84% - - 38° 52.7° 38.9° - - 885.0
4/25 8:00pm 122 0 G 2 43° 84% - - 38° 52.7° 38.9° - - 885.0
4/25 7:50pm 114 0 G 1 43° 85% - - 39° 52.7° 38.9° - - 885.0
4/25 7:40pm 167 0 G 1 44° 83% - - 39° 52.7° 38.9° - - 885.0
4/25 7:30pm 335 0 G 1 45° 81% - - 40° 52.7° 38.9° - - 884.0
4/25 7:20pm 224 0 G 2 46° 78% - - 40° 52.7° 38.9° - - 883.0
4/25 7:10pm 127 0 G 2 47° 74% - - 39° 52.7° 38.9° - - 881.0
4/25 7:00pm 286 1 G 4 48° 73% - - 39° 52.7° 38.9° - - 881.0
4/25 6:50pm 288 1 G 4 48° 75% - - 40° 52.7° 38.9° - - 882.0
4/25 6:40pm 341 0 G 1 47° 80% - - 42° 52.7° 38.9° - - 884.0
4/25 6:30pm 135 1 G 2 47° 82% - - 42° 52.7° 38.9° - - 885.0
4/25 6:20pm 238 1 G 3 47° 83% - - 42° 52.7° 38.9° - - 885.0
4/25 6:10pm 232 1 G 3 47° 82% - - 42° 52.7° 38.9° - - 885.0
4/25 6:00pm 297 1 G 3 48° 82% - - 42° 52.7° 38.9° - - 885.0
4/25 5:50pm 244 1 G 4 48° 81% - - 42° 52.7° 38.9° - - 885.0
4/25 5:40pm 262 1 G 5 49° 78% - - 42° 52.7° 38.9° - - 884.0
4/25 5:30pm 233 2 G 6 50° 74% - - 42° 52.7° 38.9° - - 882.0
4/25 5:20pm 280 2 G 6 51° 68% - - 41° 52.7° 38.9° - - 880.0
4/25 5:10pm 291 2 G 8 51° 66% - - 41° 52.7° 38.9° - - 879.0
4/25 5:00pm 289 1 G 4 51° 68% - - 41° 52.7° 38.9° - - 880.0
4/25 4:50pm 266 2 G 7 50° 72% - - 41° 52.7° 38.9° - - 881.0
4/25 4:40pm 262 2 G 8 51° 69% - - 41° 52.7° 38.9° - - 880.0
4/25 4:30pm 249 3 G 6 50° 73% - - 42° 52.7° 38.9° - - 882.0
4/25 4:20pm 246 3 G 11 50° 73% - - 42° 52.7° 38.9° - - 882.0
4/25 4:10pm 247 2 G 8 49° 74% - - 42° 52.7° 38.9° - - 882.0
4/25 4:00pm 223 3 G 11 49° 74% - - 41° 52.7° 38.9° - - 882.0
4/25 3:50pm 239 3 G 7 51° 70% - - 41° 52.7° 38.9° - - 881.0
4/25 3:40pm 230 2 G 7 49° 72% - - 41° 52.7° 38.9° - - 881.0
4/25 3:30pm 250 2 G 6 49° 73% - - 41° 52.7° 38.9° - - 881.0
4/25 3:20pm 245 2 G 7 49° 71% - - 40° 52.7° 38.9° - - 881.0
4/25 3:10pm 266 2 G 6 49° 71% - - 40° 52.7° 38.9° - - 881.0
4/25 3:00pm 221 3 G 8 49° 71% - - 40° 52.7° 38.9° - - 881.0
4/25 2:50pm 202 3 G 10 49° 68% - - 39° 52.7° 38.9° - - 880.0
4/25 2:40pm 213 5 G 11 51° 64% - - 40° 52.7° 38.9° - - 878.0
4/25 2:30pm 221 3 G 9 52° 65% - - 40° 52.5° 38.9° - - 879.0
4/25 2:20pm 234 3 G 8 50° 67% - - 40° 52.2° 38.9° - - 879.0
4/25 2:10pm 215 3 G 9 51° 65% - - 40° 52.2° 38.9° - - 879.0
4/25 2:00pm 252 2 G 7 51° 63% - - 39° 52.2° 38.9° - - 878.0
4/25 1:50pm 246 3 G 11 51° 63% - - 39° 52.2° 38.9° - - 878.0
4/25 1:40pm 253 3 G 6 51° 62% - - 38° 52.2° 38.9° - - 878.0
4/25 1:30pm 270 3 G 8 51° 62% - - 39° 51.6° 38.9° - - 878.0
4/25 1:20pm 255 3 G 7 50° 65% - - 39° 51.6° 38.9° - - 879.0
4/25 1:10pm 257 3 G 9 50° 64% - - 38° 51.3° 38.9° - - 878.0
4/25 1:00pm 248 3 G 11 50° 64% - - 39° 51.3° 38.9° - - 878.0
4/25 12:50pm 229 2 G 10 50° 63% - - 38° 51.1° 38.9° - - 878.0
4/25 12:40pm 218 3 G 8 50° 64% - - 39° 51.1° 38.9° - - 878.0
4/25 12:30pm 218 3 G 10 49° 67% - - 39° 50.7° 38.9° - - 879.0
4/25 12:20pm 220 4 G 11 49° 69% - - 39° 50.1° 38.9° - - 880.0
4/25 12:10pm 236 4 G 10 49° 68% - - 39° 50.1° 38.9° - - 880.0
4/25 12:00pm 236 4 G 11 48° 72% - - 39° 50.1° 38.9° - - 881.0
4/25 11:50am 240 3 G 8 48° 73% - - 39° 50.1° 38.9° - - 881.0
4/25 11:40am 239 3 G 8 47° 74% - - 39° 50.1° 38.9° - - 882.0
4/25 11:30am 241 4 G 11 47° 75% - - 39° 50.1° 38.9° - - 882.0
4/25 11:20am 232 4 G 11 48° 72% - - 39° 50.1° 38.9° - - 881.0
4/25 11:10am 215 2 G 9 49° 68% - - 39° 50.1° 38.9° - - 880.0
4/25 11:00am 228 3 G 7 49° 66% - - 38° 50.1° 38.9° - - 878.0
4/25 10:50am 211 4 G 11 48° 64% - - 37° 50.1° 38.9° - - 878.0
4/25 10:40am 256 4 G 12 48° 63% - - 36° 49.2° 38.9° - - 877.0
4/25 10:30am 248 3 G 9 48° 64% - - 36° 48.7° 38.9° - - 878.0
4/25 10:20am 221 4 G 10 47° 66% - - 37° 48.7° 38.9° - - 879.0
4/25 10:10am 225 3 G 9 48° 67% - - 37° 48.7° 38.9° - - 879.0
4/25 10:00am 234 4 G 11 46° 68% - - 37° 47.5° 38.9° - - 879.0
4/25 9:50am 246 4 G 12 46° 68% - - 36° 47.5° 38.9° - - 879.0
4/25 9:40am 246 4 G 12 46° 67% - - 36° 47.2° 38.9° - - 879.0
4/25 9:30am 253 4 G 16 46° 67% - - 36° 46.7° 38.9° - - 878.0
4/25 9:20am 249 4 G 11 46° 67% - - 36° 46.5° 38.9° - - 878.0
4/25 9:10am 236 5 G 11 45° 67% - - 35° 46.1° 38.9° - - 878.0
4/25 9:00am 253 4 G 11 46° 68% - - 36° 46.1° 38.9° - - 878.0
4/25 8:50am 249 4 G 12 45° 66% - - 35° 46° 38.9° - - 877.0
4/25 8:40am 250 3 G 14 45° 68% - - 35° 46° 38.9° - - 878.0
4/25 8:30am 244 5 G 13 44° 72% - - 35° 44.6° 38.9° - - 880.0
4/25 8:20am 238 6 G 15 43° 74% - - 35° 44° 38.9° - - 881.0
4/25 8:10am 260 4 G 11 44° 68% - - 34° 44° 38.9° - - 878.0
4/25 8:00am 261 4 G 13 43° 70% - - 34° 43.9° 38.9° - - 879.0
4/25 7:50am 253 5 G 14 42° 77% - - 35° 42.1° 38.9° - - 882.0
4/25 7:40am 245 5 G 12 41° 82% - - 36° 42.1° 38.9° - - 883.0
4/25 7:30am 238 6 G 14 41° 88% - - 37° 42.1° 38.9° - - 886.0
4/25 7:20am 230 5 G 16 40° 94% - - 38° 42.1° 38.9° - - 888.0
4/25 7:10am 233 3 G 9 39° 96% - - 38° 42.1° 38.9° - - 889.0
4/25 7:00am 241 3 G 8 39° 96% - - 38° 42.1° 38.9° - - 889.0
4/25 6:50am 244 4 G 11 39° 96% - - 38° 42.1° 38.9° - - 889.0
4/25 6:40am 232 4 G 8 39° 96% - - 38° 42.1° 38.9° - - 889.0
4/25 6:30am 233 4 G 12 39° 96% - - 38° 42.1° 39° - - 889.0
4/25 6:20am 235 5 G 10 39° 95% - - 38° 42.1° 39° - - 889.0
4/25 6:10am 228 5 G 9 39° 95% - - 38° 42.1° 39.1° - - 889.0
4/25 6:00am 229 5 G 12 39° 95% - - 38° 42.1° 39.2° - - 889.0
4/25 5:50am 226 5 G 10 40° 96% - - 38° 42.1° 39.3° - - 889.0
4/25 5:40am 229 6 G 12 39° 96% - - 38° 42.1° 39.3° - - 889.0
4/25 5:30am 231 6 G 17 40° 96% - - 38° 42.1° 39.3° - - 889.0
4/25 5:20am 231 7 G 17 40° 95% - - 38° 42.1° 39.5° - - 889.0
4/25 5:10am 234 6 G 18 40° 95% - - 39° 42.1° 39.5° - - 889.0
4/25 5:00am 237 7 G 14 40° 96% - - 39° 42.1° 39.5° - - 889.0
4/25 4:50am 231 5 G 12 40° 96% - - 39° 42.1° 39.5° - - 889.0
4/25 4:40am 227 7 G 14 40° 96% - - 39° 42.1° 39.5° - - 889.0
4/25 4:30am 233 6 G 15 40° 96% - - 39° 42.1° 39.5° - - 889.0
4/25 4:20am 231 6 G 15 40° 96% - - 39° 42.1° 39.5° - - 889.0
4/25 4:10am 225 7 G 17 40° 96% - - 39° 42.1° 39.5° - - 889.0
4/25 4:00am 228 9 G 18 40° 95% - - 39° 42.1° 39.5° - - 889.0
4/25 3:50am 221 8 G 17 40° 95% - - 39° 42.1° 39.5° - - 889.0
4/25 3:40am 222 8 G 20 40° 96% - - 39° 42.1° 39.5° - - 889.0
4/25 3:30am 230 8 G 16 40° 96% - - 39° 42.1° 39.5° - - 889.0
4/25 3:20am 232 9 G 19 40° 96% - - 39° 42.1° 39.5° - - 889.0
4/25 3:10am 228 7 G 16 40° 96% - - 39° 42.1° 39.5° - - 889.0
4/25 3:00am 228 9 G 19 40° 96% - - 39° 42.1° 39.5° - - 889.0
4/25 2:50am 235 8 G 18 40° 96% - - 39° 42.1° 39.5° - - 889.0
4/25 2:40am 238 7 G 16 40° 96% - - 39° 42.1° 39.5° - - 889.0
4/25 2:30am 238 7 G 21 40° 96% - - 39° 42.1° 39.5° - - 889.0
4/25 2:20am 232 9 G 18 40° 96% - - 39° 42.1° 39.5° - - 889.0
4/25 2:10am 234 10 G 16 40° 96% - - 39° 42.1° 39.5° - - 889.0
4/25 2:00am 233 9 G 19 40° 95% - - 39° 42.1° 39.5° - - 889.0
4/25 1:50am 236 8 G 18 40° 94% - - 39° 42.1° 39.5° - - 889.0
4/25 1:40am 236 10 G 21 40° 95% - - 39° 42.1° 39.5° - - 889.0
4/25 1:30am 235 9 G 18 40° 95% - - 39° 42.1° 39.5° - - 889.0
4/25 1:20am 231 10 G 20 41° 92% - - 39° 42.1° 39.5° - - 888.0
4/25 1:10am 232 10 G 22 41° 92% - - 39° 42.1° 39.5° - - 888.0
4/25 1:00am 237 9 G 19 41° 96% - - 39° 41° 39.5° - - 889.0
4/25 12:50am 230 9 G 18 40° 95% - - 39° 40.5° 39.5° - - 889.0
4/25 12:40am 233 8 G 14 40° 95% - - 39° 40.5° 39.5° - - 889.0
4/25 12:30am 236 8 G 17 40° 96% - - 39° 40.3° 39.5° - - 889.0
4/25 12:20am 232 9 G 18 40° 96% - - 39° 40.3° 39.5° - - 889.0
4/25 12:10am 232 9 G 20 40° 95% - - 38° 40° 39.5° - - 889.0
4/25 12:00am 235 9 G 18 39° 94% - - 38° 59.9° 39° - - 888.0
4/24 11:50pm 239 8 G 15 39° 88% - - 36° 59.9° 39° - - 885.0
4/24 11:40pm 240 8 G 15 41° 78% - - 34° 59.9° 39.9° - - 881.0
4/24 11:30pm 237 8 G 12 42° 72% - - 34° 59.9° 41.8° - - 879.0
4/24 11:20pm 237 7 G 16 43° 69% - - 34° 59.9° 42.5° - - 878.0
4/24 11:10pm 235 8 G 13 43° 68% - - 33° 59.9° 43° - - 878.0
4/24 11:00pm 239 7 G 15 43° 66% - - 33° 59.9° 43.1° - - 877.0
4/24 10:50pm 237 7 G 14 43° 64% - - 32° 59.9° 43.1° - - 876.0
4/24 10:40pm 239 7 G 14 44° 62% - - 31° 59.9° 43.2° - - 875.0
4/24 10:30pm 236 7 G 14 44° 61% - - 32° 59.9° 43.5° - - 875.0
4/24 10:20pm 232 8 G 15 44° 61% - - 32° 59.9° 43.5° - - 875.0
4/24 10:10pm 228 7 G 13 44° 61% - - 31° 59.9° 43.5° - - 875.0
4/24 10:00pm 232 7 G 12 44° 60% - - 31° 59.9° 43.5° - - 875.0
4/24 9:50pm 232 7 G 16 44° 59% - - 30° 59.9° 43.5° - - 874.0
4/24 9:40pm 234 7 G 11 44° 58% - - 30° 59.9° 43.5° - - 874.0
4/24 9:30pm 233 7 G 11 44° 57% - - 30° 59.9° 43.5° - - 874.0
4/24 9:20pm 235 8 G 14 44° 57% - - 30° 59.9° 44° - - 874.0
4/24 9:10pm 234 7 G 12 44° 57% - - 30° 59.9° 44.2° - - 874.0
4/24 9:00pm 231 6 G 12 45° 56% - - 30° 59.9° 44.2° - - 873.0
4/24 8:50pm 232 7 G 14 45° 56% - - 30° 59.9° 44.7° - - 873.0
4/24 8:40pm 231 8 G 16 45° 56% - - 30° 59.9° 45° - - 873.0
4/24 8:30pm 234 7 G 19 45° 55% - - 30° 59.9° 45° - - 873.0
4/24 8:20pm 237 7 G 13 45° 55% - - 30° 59.9° 45.2° - - 873.0
4/24 8:10pm 237 6 G 13 46° 55% - - 30° 59.9° 45.4° - - 873.0
4/24 8:00pm 238 7 G 14 46° 53% - - 30° 59.9° 45.9° - - 872.0
4/24 7:50pm 238 7 G 14 46° 53% - - 30° 59.9° 45.9° - - 872.0
4/24 7:40pm 240 7 G 15 46° 53% - - 30° 59.9° 46.1° - - 872.0
4/24 7:30pm 238 8 G 13 47° 53% - - 30° 59.9° 46.3° - - 872.0
4/24 7:20pm 237 8 G 18 47° 52% - - 30° 59.9° 46.5° - - 872.0
4/24 7:10pm 239 7 G 13 47° 54% - - 32° 59.9° 47.1° - - 873.0
4/24 7:00pm 237 9 G 16 48° 58% - - 34° 59.9° 47.4° - - 875.0
4/24 6:50pm 238 8 G 15 48° 58% - - 34° 59.9° 47.8° - - 875.0
4/24 6:40pm 237 8 G 15 48° 56% - - 33° 59.9° 47.9° - - 874.0
4/24 6:30pm 234 9 G 18 48° 56% - - 34° 59.9° 48° - - 874.0
4/24 6:20pm 232 9 G 20 49° 58% - - 35° 59.9° 48° - - 875.0
4/24 6:10pm 236 8 G 20 50° 57% - - 35° 59.9° 48° - - 875.0
4/24 6:00pm 239 7 G 18 52° 51% - - 34° 59.9° 48° - - 873.0